Time;durP1;ratioP1;P1;durP2;ratioP2;P2;SDS_P1;SDS_P2;PMS_P1;PMS_P2;Temp;Humidity;BMP_temperature;BMP_pressure;BME280_temperature;BME280_humidity;BME280_pressure;Samples;Min_cycle;Max_cycle;Signal;HPM_P1;HPM_P2
2022/03/23 00:02:09;;;;;;;27.85;21.15;;;;;;;8.16;66.15;102894.78;5294999;28;20042;-71
2022/03/23 00:04:40;;;;;;;36.33;22.48;;;;;;;8.12;65.96;102896.69;5295546;28;20762;-71
2022/03/23 00:07:12;;;;;;;31.48;21.55;;;;;;;8.06;66.02;102896.91;5291812;28;20439;-71
2022/03/23 00:09:44;;;;;;;30.13;22.10;;;;;;;7.94;66.27;102894.81;5291870;28;20032;-71
2022/03/23 00:12:15;;;;;;;30.05;21.55;;;;;;;7.87;67.04;102888.16;5292745;28;20038;-71
2022/03/23 00:14:46;;;;;;;29.92;20.88;;;;;;;7.86;67.33;102894.28;5292813;28;20098;-71
2022/03/23 00:17:18;;;;;;;31.15;21.00;;;;;;;7.84;67.99;102896.97;5294664;28;20027;-71
2022/03/23 00:19:49;;;;;;;35.40;23.25;;;;;;;7.75;67.68;102899.94;5292129;28;20073;-71
2022/03/23 00:22:21;;;;;;;32.45;22.20;;;;;;;7.76;68.60;102901.63;5291932;28;20032;-71
2022/03/23 00:24:56;;;;;;;31.30;21.25;;;;;;;7.70;69.62;102889.69;5293218;28;20028;-71
2022/03/23 00:27:27;;;;;;;32.47;22.80;;;;;;;7.69;68.99;102902.78;5293173;28;20487;-71
2022/03/23 00:29:58;;;;;;;34.22;22.63;;;;;;;7.66;69.80;102900.31;5294477;28;20020;-71
2022/03/23 00:32:29;;;;;;;31.45;21.45;;;;;;;7.57;69.51;102904.09;5291433;28;20035;-71
2022/03/23 00:35:02;;;;;;;32.13;22.40;;;;;;;7.53;69.88;102903.38;5294912;28;20024;-72
2022/03/23 00:37:35;;;;;;;32.38;21.83;;;;;;;7.46;71.10;102903.69;5294497;28;20028;-71
2022/03/23 00:40:07;;;;;;;30.17;22.00;;;;;;;7.45;71.20;102905.44;5293427;28;20169;-71
2022/03/23 00:42:38;;;;;;;32.92;21.77;;;;;;;7.39;71.03;102897.88;5294336;28;20553;-71
2022/03/23 00:45:11;;;;;;;33.88;22.48;;;;;;;7.28;72.61;102898.28;5293053;28;20426;-71
2022/03/23 00:47:46;;;;;;;34.78;21.83;;;;;;;7.24;70.82;102896.69;5294342;28;20465;-71
2022/03/23 00:50:17;;;;;;;33.08;23.15;;;;;;;7.12;73.34;102904.94;5292736;28;20039;-71
2022/03/23 00:52:49;;;;;;;31.83;21.95;;;;;;;7.03;74.14;102900.09;5292126;28;20340;-71
2022/03/23 00:55:20;;;;;;;37.40;24.30;;;;;;;7.03;72.00;102893.13;5294292;28;20034;-71
2022/03/23 00:57:52;;;;;;;31.20;21.40;;;;;;;7.04;72.42;102899.19;5292766;28;20444;-71
2022/03/23 01:00:23;;;;;;;32.40;21.90;;;;;;;6.97;71.68;102901.19;5292041;28;20032;-71
2022/03/23 01:02:55;;;;;;;34.55;22.67;;;;;;;6.99;73.75;102891.53;5292902;28;20020;-71
2022/03/23 01:05:26;;;;;;;32.17;23.27;;;;;;;6.96;71.53;102898.63;5292822;28;20054;-71
2022/03/23 01:07:58;;;;;;;33.15;22.05;;;;;;;6.91;72.73;102890.97;5292138;28;20016;-71
2022/03/23 01:10:30;;;;;;;31.10;22.58;;;;;;;6.90;74.53;102888.44;5295035;28;20058;-71
2022/03/23 01:13:01;;;;;;;31.75;22.55;;;;;;;6.82;73.17;102893.94;5294735;28;20543;-71
2022/03/23 01:15:33;;;;;;;34.50;22.20;;;;;;;6.74;72.32;102880.31;5292144;28;20051;-71
2022/03/23 01:18:04;;;;;;;29.75;23.60;;;;;;;6.75;73.06;102892.44;5289552;28;20391;-71
2022/03/23 01:20:36;;;;;;;31.98;23.42;;;;;;;6.73;75.27;102883.81;5294678;28;20020;-71
2022/03/23 01:23:09;;;;;;;32.83;24.20;;;;;;;6.61;76.12;102889.47;5293650;28;20028;-71
2022/03/23 01:25:40;;;;;;;34.65;22.55;;;;;;;6.57;76.22;102889.56;5292579;28;20016;-71
2022/03/23 01:28:11;;;;;;;33.22;21.75;;;;;;;6.57;74.60;102889.56;5292308;28;20432;-71
2022/03/23 01:30:43;;;;;;;31.13;22.30;;;;;;;6.54;74.63;102883.63;5292052;28;20440;-71
2022/03/23 01:33:14;;;;;;;31.17;23.20;;;;;;;6.46;76.60;102881.28;5291951;28;20093;-71
2022/03/23 01:35:45;;;;;;;30.55;21.88;;;;;;;6.48;75.46;102874.28;5292065;28;20023;-71
2022/03/23 01:38:17;;;;;;;33.10;21.05;;;;;;;6.45;76.52;102870.94;5291307;28;20034;-71
2022/03/23 01:40:48;;;;;;;32.17;22.95;;;;;;;6.40;75.97;102876.28;5294783;28;20488;-71
2022/03/23 01:43:19;;;;;;;31.75;22.65;;;;;;;6.39;76.87;102878.94;5294285;28;20036;-71
2022/03/23 01:45:51;;;;;;;33.97;23.10;;;;;;;6.36;76.63;102873.84;5295566;28;20020;-71
2022/03/23 01:48:22;;;;;;;32.10;22.45;;;;;;;6.31;75.29;102871.41;5291830;28;20081;-71
2022/03/23 01:50:53;;;;;;;33.08;22.08;;;;;;;6.29;76.88;102871.47;5293159;28;20024;-71
2022/03/23 01:53:24;;;;;;;31.52;22.63;;;;;;;6.27;76.54;102869.81;5290719;28;20024;-71
2022/03/23 01:55:56;;;;;;;31.98;21.60;;;;;;;6.14;76.03;102850.31;5290734;28;20020;-71
2022/03/23 01:58:27;;;;;;;31.08;22.55;;;;;;;6.24;76.38;102869.91;5289747;28;20040;-71
2022/03/23 02:00:59;;;;;;;31.05;21.75;;;;;;;6.21;76.34;102865.69;5292084;28;20024;-71
2022/03/23 02:03:31;;;;;;;31.58;22.42;;;;;;;6.14;78.92;102861.59;5288643;28;20032;-71
2022/03/23 02:06:02;;;;;;;36.10;24.00;;;;;;;6.17;78.28;102868.41;5295714;28;20024;-70
2022/03/23 02:08:34;;;;;;;32.03;22.80;;;;;;;6.14;79.15;102858.97;5293352;28;20072;-71
2022/03/23 02:11:05;;;;;;;34.88;22.92;;;;;;;6.13;79.27;102862.47;5291810;28;20035;-71
2022/03/23 02:13:36;;;;;;;33.33;22.67;;;;;;;6.16;79.63;102864.13;5291272;28;20083;-71
2022/03/23 02:16:09;;;;;;;36.72;24.52;;;;;;;6.12;79.85;102865.13;5291847;28;20020;-71
2022/03/23 02:18:40;;;;;;;32.85;24.02;;;;;;;6.12;79.87;102862.53;5292732;28;20488;-71
2022/03/23 02:21:15;;;;;;;33.97;23.27;;;;;;;6.16;79.04;102869.31;5290779;28;20264;-72
2022/03/23 02:23:46;;;;;;;29.60;21.83;;;;;;;6.01;78.76;102868.94;5291814;28;20020;-71
2022/03/23 02:26:17;;;;;;;29.23;22.10;;;;;;;5.96;78.64;102865.66;5292781;28;20036;-71
2022/03/23 02:28:50;;;;;;;31.70;22.92;;;;;;;5.91;77.40;102870.13;5291157;28;20039;-71
2022/03/23 02:31:22;;;;;;;33.53;23.27;;;;;;;5.79;78.21;102857.50;5291987;28;20020;-71
2022/03/23 02:33:53;;;;;;;32.92;23.23;;;;;;;5.78;79.30;102868.81;5289402;28;20081;-71
2022/03/23 02:36:25;;;;;;;31.60;22.60;;;;;;;5.70;80.12;102868.22;5291186;28;20407;-71
2022/03/23 02:38:56;;;;;;;30.98;21.63;;;;;;;5.70;78.70;102865.59;5289877;28;20020;-71
2022/03/23 02:41:28;;;;;;;32.38;22.25;;;;;;;5.68;78.06;102864.78;5293183;28;20085;-71
2022/03/23 02:44:00;;;;;;;35.22;23.23;;;;;;;5.58;80.88;102865.09;5287468;28;20021;-72
2022/03/23 02:46:35;;;;;;;31.38;21.83;;;;;;;5.50;81.08;102858.44;5289256;28;20512;-71
2022/03/23 02:49:07;;;;;;;29.50;20.80;;;;;;;5.48;80.97;102855.03;5293768;28;20020;-71
2022/03/23 02:51:38;;;;;;;33.35;22.33;;;;;;;5.45;79.76;102855.97;5293119;28;20376;-70
2022/03/23 03:02:55;;;;;;;31.55;22.05;;;;;;;5.38;81.22;102859.69;5289629;28;20047;-71
2022/03/23 03:05:26;;;;;;;31.23;22.45;;;;;;;5.44;80.62;102856.88;5290826;28;20024;-71
2022/03/23 03:10:47;;;;;;;32.53;23.45;;;;;;;5.33;80.80;102858.94;5293646;28;20040;-71
2022/03/23 03:13:18;;;;;;;32.65;22.10;;;;;;;5.28;81.67;102859.09;5408089;22;20865;-71
2022/03/23 03:15:50;;;;;;;31.55;21.88;;;;;;;5.26;81.98;102854.81;5261510;28;20020;-71
2022/03/23 03:18:21;;;;;;;33.58;22.20;;;;;;;5.25;82.38;102866.13;5268152;28;20024;-70
2022/03/23 03:20:52;;;;;;;33.22;22.23;;;;;;;5.21;82.20;102867.13;5278611;28;20028;-70
2022/03/23 03:23:24;;;;;;;30.42;21.75;;;;;;;5.16;83.98;102862.06;5270246;28;20040;-71
2022/03/23 03:25:55;;;;;;;31.63;22.40;;;;;;;5.11;84.53;102866.53;5277992;28;20039;-71
2022/03/23 03:28:27;;;;;;;34.95;21.77;;;;;;;5.10;84.28;102865.69;5278410;28;20063;-70
2022/03/23 03:30:59;;;;;;;28.92;21.38;;;;;;;5.01;84.55;102871.16;5277799;28;20057;-70
2022/03/23 03:33:30;;;;;;;29.67;22.55;;;;;;;4.99;83.59;102870.34;5277401;28;20066;-71
2022/03/23 03:36:03;;;;;;;28.02;21.15;;;;;;;4.99;82.41;102879.88;5277427;28;20026;-70
2022/03/23 03:38:35;;;;;;;31.35;21.92;;;;;;;4.94;82.71;102874.81;5276930;28;20393;-70
2022/03/23 03:41:07;;;;;;;29.90;21.92;;;;;;;4.83;84.82;102866.47;5278100;28;20044;-71
2022/03/23 03:43:39;;;;;;;31.50;19.80;;;;;;;4.81;85.03;102870.84;5275845;28;20062;-70
2022/03/23 03:46:11;;;;;;;28.98;20.02;;;;;;;4.77;84.14;102870.13;5277085;28;20131;-69
2022/03/23 03:48:42;;;;;;;32.15;21.90;;;;;;;4.88;85.96;102870.63;5277546;28;20025;-68
2022/03/23 03:51:13;;;;;;;30.15;21.55;;;;;;;4.83;85.83;102876.88;5276790;28;20086;-68
2022/03/23 03:53:45;;;;;;;35.22;22.60;;;;;;;4.84;85.63;102878.56;5277671;28;20021;-68
2022/03/23 03:56:16;;;;;;;30.65;21.27;;;;;;;4.88;85.99;102877.59;5278256;28;20115;-69
2022/03/23 03:58:48;;;;;;;33.50;23.02;;;;;;;4.85;86.33;102877.69;5276635;28;20024;-71
2022/03/23 04:01:20;;;;;;;36.83;23.48;;;;;;;4.92;87.57;102876.59;5276237;28;20081;-71
2022/03/23 04:03:52;;;;;;;33.60;23.60;;;;;;;4.97;85.71;102877.34;5277218;28;20091;-71
2022/03/23 04:06:23;;;;;;;36.42;22.52;;;;;;;4.98;85.64;102881.63;5275185;28;20025;-70
2022/03/23 04:08:54;;;;;;;32.72;22.75;;;;;;;4.91;85.27;102880.09;5277695;28;20035;-70
2022/03/23 04:11:26;;;;;;;34.03;23.08;;;;;;;4.93;86.42;102878.31;5275626;28;20128;-71
2022/03/23 04:13:57;;;;;;;35.30;23.27;;;;;;;4.83;85.92;102879.47;5276806;28;20044;-70
2022/03/23 04:16:28;;;;;;;34.45;24.02;;;;;;;4.86;86.15;102884.59;5277495;28;20051;-70
2022/03/23 04:19:00;;;;;;;32.05;22.35;;;;;;;4.84;84.83;102883.75;5277508;28;20051;-71
2022/03/23 04:21:35;;;;;;;29.33;21.75;;;;;;;4.84;85.17;102882.00;5275830;28;20021;-70
2022/03/23 04:24:06;;;;;;;35.90;23.60;;;;;;;4.83;85.78;102882.06;5276745;28;20036;-70
2022/03/23 04:26:37;;;;;;;31.90;22.50;;;;;;;4.69;84.53;102873.81;5276303;28;20025;-71
2022/03/23 04:29:09;;;;;;;35.67;24.02;;;;;;;4.76;85.41;102878.78;5274753;28;20055;-70
2022/03/23 04:31:40;;;;;;;42.72;25.60;;;;;;;4.68;86.40;102872.94;5271589;28;20098;-70
2022/03/23 04:34:12;;;;;;;38.88;26.02;;;;;;;4.70;88.10;102872.91;5273582;28;20030;-70
2022/03/23 04:36:43;;;;;;;41.17;26.17;;;;;;;4.69;87.65;102879.00;5275027;28;20458;-70
2022/03/23 04:39:14;;;;;;;36.63;26.00;;;;;;;4.72;86.88;102876.31;5275296;28;20546;-70
2022/03/23 04:41:46;;;;;;;37.70;25.75;;;;;;;4.72;86.33;102878.91;5277009;28;20024;-70
2022/03/23 04:44:17;;;;;;;35.92;25.30;;;;;;;4.78;85.96;102881.34;5274406;28;20107;-70
2022/03/23 04:46:48;;;;;;;36.70;25.10;;;;;;;4.72;86.16;102884.09;5274485;28;20341;-71
2022/03/23 04:49:20;;;;;;;36.03;25.35;;;;;;;4.68;87.28;102879.91;5276038;28;20032;-70
2022/03/23 04:51:51;;;;;;;38.97;24.88;;;;;;;4.73;86.57;102889.25;5276722;28;20470;-70
2022/03/23 04:54:22;;;;;;;45.97;27.08;;;;;;;4.67;86.35;102886.84;5274503;28;20033;-70
2022/03/23 04:56:54;;;;;;;38.03;26.00;;;;;;;4.64;86.96;102899.91;5275699;28;20017;-70
2022/03/23 04:59:27;;;;;;;46.25;25.90;;;;;;;4.61;86.92;102895.63;5276558;28;21017;-70
2022/03/23 05:01:58;;;;;;;40.95;24.63;;;;;;;4.64;85.21;102905.09;5272440;28;20393;-70
2022/03/23 05:04:29;;;;;;;37.03;26.08;;;;;;;4.60;85.85;102904.31;5273544;28;20025;-70
2022/03/23 05:07:00;;;;;;;36.40;26.20;;;;;;;4.62;86.75;102907.72;5274545;28;20043;-70
2022/03/23 05:09:32;;;;;;;41.33;26.52;;;;;;;4.53;85.60;102902.78;5275285;28;20480;-70
2022/03/23 05:12:03;;;;;;;37.80;25.73;;;;;;;4.51;85.88;102911.47;5273491;28;20020;-70
2022/03/23 05:14:36;;;;;;;38.88;25.38;;;;;;;4.51;86.31;102909.75;5275953;28;20265;-70
2022/03/23 05:17:07;;;;;;;41.20;25.63;;;;;;;4.46;87.27;102914.19;5274655;28;20012;-70
2022/03/23 05:19:39;;;;;;;37.60;26.05;;;;;;;4.44;85.46;102916.00;5275402;28;20030;-70
2022/03/23 05:22:11;;;;;;;39.78;24.90;;;;;;;4.51;86.60;102908.88;5274307;28;20025;-70
2022/03/23 05:24:42;;;;;;;40.03;23.15;;;;;;;4.38;86.38;102909.22;5275713;28;20500;-70
2022/03/23 05:27:14;;;;;;;37.67;26.30;;;;;;;4.33;86.08;102913.69;5274735;28;20154;-70
2022/03/23 05:29:45;;;;;;;37.03;23.90;;;;;;;4.28;86.10;102914.66;5275792;28;20016;-70
2022/03/23 05:32:16;;;;;;;37.70;25.50;;;;;;;4.25;86.80;102913.03;5274374;28;20041;-70
2022/03/23 05:34:49;;;;;;;36.83;24.23;;;;;;;4.26;86.75;102916.47;5275401;28;20571;-70
2022/03/23 05:37:20;;;;;;;37.70;25.08;;;;;;;4.21;86.79;102908.81;5274968;28;20068;-70
2022/03/23 05:39:52;;;;;;;34.78;25.27;;;;;;;4.27;85.52;102915.56;5275600;28;20489;-70
2022/03/23 05:42:23;;;;;;;35.55;24.67;;;;;;;4.19;85.53;102917.50;5275495;28;20113;-70
2022/03/23 05:44:54;;;;;;;36.55;25.02;;;;;;;4.19;85.63;102914.91;5274216;28;20039;-70
2022/03/23 05:47:26;;;;;;;35.70;24.73;;;;;;;4.18;86.42;102923.59;5275558;28;20481;-71
2022/03/23 05:49:57;;;;;;;36.00;24.95;;;;;;;4.14;86.99;102925.41;5274533;28;20031;-70
2022/03/23 05:52:28;;;;;;;36.10;24.30;;;;;;;4.14;87.80;102928.00;5274301;28;20136;-70
2022/03/23 05:55:01;;;;;;;35.65;25.58;;;;;;;4.14;87.84;102923.66;5274814;28;20024;-70
2022/03/23 05:57:32;;;;;;;35.47;24.77;;;;;;;4.23;87.91;102921.72;5275181;28;20039;-70
2022/03/23 06:00:08;;;;;;;35.28;25.15;;;;;;;4.21;88.08;102931.31;5273839;28;20028;-71
2022/03/23 06:02:41;;;;;;;36.47;24.05;;;;;;;4.12;87.85;102927.16;5273354;28;20025;-70
2022/03/23 06:05:12;;;;;;;39.22;24.83;;;;;;;4.12;87.59;102935.81;5274870;28;20032;-70
2022/03/23 06:07:43;;;;;;;39.42;25.30;;;;;;;4.09;88.42;102938.50;5275042;28;20020;-68
2022/03/23 06:10:15;;;;;;;37.80;25.20;;;;;;;4.13;88.07;102936.69;5272328;28;20528;-68
2022/03/23 06:12:46;;;;;;;34.30;24.02;;;;;;;4.16;86.95;102939.19;5274828;28;20078;-69
2022/03/23 06:15:18;;;;;;;35.35;23.75;;;;;;;4.06;86.89;102928.19;5275090;28;20062;-68
2022/03/23 06:17:49;;;;;;;43.47;24.98;;;;;;;4.13;88.20;102940.13;5275051;28;20026;-68
2022/03/23 06:20:20;;;;;;;37.40;24.00;;;;;;;4.20;88.33;102935.63;5274576;28;20028;-68
2022/03/23 06:22:52;;;;;;;33.55;25.92;;;;;;;4.19;88.26;102943.44;5274515;28;20081;-68
2022/03/23 06:25:25;;;;;;;42.85;25.20;;;;;;;4.18;88.29;102941.75;5274698;28;20052;-68
2022/03/23 06:27:56;;;;;;;38.40;24.95;;;;;;;4.22;89.33;102938.19;5274581;28;20025;-68
2022/03/23 06:30:27;;;;;;;37.13;25.17;;;;;;;4.25;89.96;102940.72;5273754;28;20033;-68
2022/03/23 06:32:58;;;;;;;36.72;24.58;;;;;;;4.28;90.76;102935.44;5274644;28;20037;-71
2022/03/23 06:35:30;;;;;;;45.40;25.92;;;;;;;4.29;90.10;102944.94;5274254;28;20025;-71
2022/03/23 06:38:02;;;;;;;46.17;24.73;;;;;;;4.32;89.78;102947.47;5272719;28;20121;-71
2022/03/23 06:40:34;;;;;;;41.03;25.40;;;;;;;4.40;91.30;102958.50;5274672;28;20036;-71
2022/03/23 06:43:05;;;;;;;42.95;26.88;;;;;;;4.43;91.11;102955.81;5274154;28;20655;-71
2022/03/23 06:45:40;;;;;;;45.25;26.65;;;;;;;4.49;91.39;102954.81;5279285;28;20023;-71
2022/03/23 06:48:11;;;;;;;37.70;25.15;;;;;;;4.55;91.95;102959.84;5278330;28;20035;-71
2022/03/23 06:50:42;;;;;;;43.58;26.33;;;;;;;4.59;92.15;102964.94;5278101;28;20237;-71
2022/03/23 06:53:13;;;;;;;37.60;26.00;;;;;;;4.66;92.50;102963.03;5278380;28;20085;-68
2022/03/23 06:55:45;;;;;;;47.60;27.65;;;;;;;4.67;92.97;102961.28;5278692;28;20496;-68
2022/03/23 06:58:16;;;;;;;47.22;27.50;;;;;;;4.76;93.26;102959.28;5277852;28;20052;-69
2022/03/23 07:00:47;;;;;;;49.13;27.65;;;;;;;4.84;93.11;102961.66;5278571;28;20112;-68
2022/03/23 07:03:19;;;;;;;43.20;26.92;;;;;;;4.94;91.52;102959.69;5277966;28;20481;-71
2022/03/23 07:05:50;;;;;;;45.08;27.85;;;;;;;5.07;92.24;102963.63;5278930;28;20024;-70
2022/03/23 07:11:11;;;;;;;43.42;28.20;;;;;;;5.25;93.07;102957.09;5275602;28;20491;-71
2022/03/23 07:13:42;;;;;;;47.45;29.33;;;;;;;5.40;93.94;102953.19;5274859;28;20123;-71
2022/03/23 07:16:14;;;;;;;50.08;31.33;;;;;;;5.57;94.30;102966.56;5268004;28;20020;-71
2022/03/23 07:18:45;;;;;;;43.38;29.40;;;;;;;5.63;93.83;102971.56;5278216;28;20382;-70
2022/03/23 07:21:17;;;;;;;46.35;28.65;;;;;;;5.85;90.53;102967.41;5271236;28;20408;-71
2022/03/23 07:23:48;;;;;;;36.92;27.30;;;;;;;5.81;91.16;102967.56;5275532;28;20020;-71
2022/03/23 07:26:21;;;;;;;40.58;28.27;;;;;;;5.99;88.40;102967.03;5276922;28;20035;-71
2022/03/23 07:28:52;;;;;;;46.47;27.70;;;;;;;6.16;84.79;102976.03;5277787;28;20417;-71
2022/03/23 07:31:24;;;;;;;38.63;28.02;;;;;;;6.36;83.97;102978.81;5278154;28;20283;-70
2022/03/23 07:33:57;;;;;;;37.13;27.95;;;;;;;6.55;84.29;102974.75;5275919;28;20033;-70
2022/03/23 07:36:28;;;;;;;45.72;28.52;;;;;;;6.57;82.29;102972.06;5275550;28;20054;-72
2022/03/23 07:39:00;;;;;;;45.75;28.38;;;;;;;6.78;82.09;102979.16;5273285;28;20033;-70
2022/03/23 07:41:31;;;;;;;42.42;27.95;;;;;;;6.91;79.84;102969.16;5273029;28;20108;-68
2022/03/23 07:44:02;;;;;;;38.67;28.52;;;;;;;7.01;80.14;102972.28;5273490;28;20031;-68
2022/03/23 07:46:35;;;;;;;39.38;28.50;;;;;;;7.16;78.63;102973.47;5270218;28;20056;-69
2022/03/23 07:49:07;;;;;;;37.22;25.85;;;;;;;7.27;76.99;102981.75;5274735;28;20116;-68
2022/03/23 07:51:39;;;;;;;41.72;27.98;;;;;;;7.26;78.98;102988.72;5271790;28;20024;-68
2022/03/23 07:54:10;;;;;;;45.83;26.88;;;;;;;7.58;74.96;102994.53;5271564;28;20032;-69
2022/03/23 07:56:42;;;;;;;37.83;27.15;;;;;;;7.66;73.71;102976.81;5273039;28;20016;-68
2022/03/23 07:59:13;;;;;;;40.22;26.77;;;;;;;7.73;75.04;102991.31;5270383;28;20631;-69
2022/03/23 08:01:44;;;;;;;39.25;27.75;;;;;;;7.90;75.45;102992.44;5273478;28;20030;-69
2022/03/23 08:04:15;;;;;;;35.28;25.30;;;;;;;8.01;72.62;102996.31;5258812;28;20070;-69
2022/03/23 08:06:47;;;;;;;36.40;25.35;;;;;;;8.24;71.16;103002.38;5271461;28;20028;-68
2022/03/23 08:09:18;;;;;;;41.38;27.42;;;;;;;8.32;70.90;102996.84;5272459;28;20111;-69
2022/03/23 08:11:49;;;;;;;40.28;27.67;;;;;;;8.51;75.24;103001.25;5274392;28;20066;-69
2022/03/23 08:14:21;;;;;;;48.17;29.83;;;;;;;8.62;75.43;102999.97;5273783;28;20049;-69
2022/03/23 08:16:53;;;;;;;44.25;28.45;;;;;;;8.80;74.85;102993.97;5271108;28;20465;-69
2022/03/23 08:19:25;;;;;;;41.03;28.77;;;;;;;8.95;72.48;102995.94;5273841;28;20040;-68
2022/03/23 08:21:56;;;;;;;37.95;28.35;;;;;;;9.02;70.74;102989.50;5274790;28;20025;-69
2022/03/23 08:24:27;;;;;;;39.80;27.00;;;;;;;9.01;72.47;102997.41;5271662;28;20027;-69
2022/03/23 08:26:59;;;;;;;40.13;27.63;;;;;;;9.24;70.30;102988.53;5274188;28;20025;-69
2022/03/23 08:29:31;;;;;;;39.15;27.90;;;;;;;9.27;70.60;102985.78;5273792;28;20498;-69
2022/03/23 08:32:02;;;;;;;34.38;27.15;;;;;;;9.41;70.48;102996.50;5274428;28;20111;-69
2022/03/23 08:34:34;;;;;;;38.08;25.70;;;;;;;9.63;65.54;102991.13;5271575;28;20028;-69
2022/03/23 08:37:05;;;;;;;39.75;27.08;;;;;;;9.82;65.82;102985.03;5268455;28;20078;-69
2022/03/23 08:39:36;;;;;;;36.65;27.38;;;;;;;9.83;66.50;102981.47;5270627;28;20044;-69
2022/03/23 08:42:08;;;;;;;35.67;26.33;;;;;;;10.16;64.13;102987.72;5270317;28;20050;-69
2022/03/23 08:44:41;;;;;;;38.83;26.75;;;;;;;10.22;64.93;102986.56;5271149;28;20035;-69
2022/03/23 08:47:12;;;;;;;;;;;;;;;10.68;63.47;102987.78;5272915;28;20664;-69
2022/03/23 08:49:44;;;;;;;38.00;25.73;;;;;;;10.73;59.10;102987.53;5272855;28;19916;-69
2022/03/23 08:52:16;;;;;;;40.78;25.92;;;;;;;10.70;57.30;102998.19;5271052;28;20471;-69
2022/03/23 08:54:47;;;;;;;35.58;24.65;;;;;;;11.11;58.10;102997.81;5271230;28;20077;-69
2022/03/23 08:57:18;;;;;;;35.35;24.33;;;;;;;11.24;57.00;102987.50;5273499;28;20112;-69
2022/03/23 08:59:50;;;;;;;37.67;26.20;;;;;;;11.44;60.05;102993.41;5274020;28;20071;-69
2022/03/23 09:02:21;;;;;;;40.15;27.35;;;;;;;11.53;58.04;102991.19;5273836;28;20607;-69
2022/03/23 09:04:52;;;;;;;38.60;26.75;;;;;;;11.73;55.79;103000.59;5270744;28;20393;-69
2022/03/23 09:07:24;;;;;;;41.72;26.58;;;;;;;11.91;54.64;102997.81;5267670;28;21385;-69
2022/03/23 09:09:55;;;;;;;35.17;26.20;;;;;;;12.02;51.49;102994.59;5272726;28;20631;-69
2022/03/23 09:12:27;;;;;;;37.92;25.88;;;;;;;12.22;50.42;103000.50;5273575;28;20027;-70
2022/03/23 09:14:58;;;;;;;38.28;26.00;;;;;;;12.38;49.99;102996.88;5267248;28;20052;-70
2022/03/23 09:17:30;;;;;;;35.53;25.77;;;;;;;12.51;48.26;102990.94;5271992;28;20028;-70
2022/03/23 09:20:01;;;;;;;29.95;23.80;;;;;;;12.72;49.95;102988.78;5273539;28;20024;-69
2022/03/23 09:22:36;;;;;;;38.35;26.17;;;;;;;13.08;49.81;102994.47;5268517;28;20495;-70
2022/03/23 09:25:13;;;;;;;36.65;25.50;;;;;;;13.04;46.91;102990.34;5269779;28;20146;-67
2022/03/23 09:27:44;;;;;;;34.58;25.52;;;;;;;13.17;45.23;102990.44;5271741;28;20035;-70
2022/03/23 09:30:16;;;;;;;34.70;25.60;;;;;;;13.58;43.55;102987.88;5270628;28;20401;-69
2022/03/23 09:32:48;;;;;;;33.25;24.60;;;;;;;13.61;43.62;102987.69;5272256;28;20028;-70
2022/03/23 09:35:19;;;;;;;33.75;24.88;;;;;;;13.68;42.80;102995.22;5269139;28;20987;-69
2022/03/23 09:37:50;;;;;;;33.58;25.80;;;;;;;13.73;44.84;102987.84;5272456;28;20031;-70
2022/03/23 09:40:25;;;;;;;32.80;25.50;;;;;;;14.03;42.49;102990.28;5271736;28;20089;-70
2022/03/23 09:43:05;;;;;;;32.45;23.60;;;;;;;14.41;40.36;102992.19;5270375;28;20374;-67
2022/03/23 09:45:46;;;;;;;34.53;23.85;;;;;;;14.54;39.15;102987.78;5270134;28;20025;-69
2022/03/23 09:48:22;;;;;;;30.05;23.58;;;;;;;14.74;37.87;102987.31;5269566;28;20067;-70
2022/03/23 09:50:54;;;;;;;39.63;23.40;;;;;;;15.06;38.29;102987.69;5268725;28;20060;-69
2022/03/23 09:53:25;;;;;;;30.05;22.15;;;;;;;15.12;36.43;102989.09;5266904;28;20115;-70
2022/03/23 09:55:57;;;;;;;27.83;21.50;;;;;;;15.43;33.65;102981.63;5270985;28;20027;-68
2022/03/23 09:58:29;;;;;;;27.98;21.25;;;;;;;15.45;32.78;102985.84;5269838;28;20051;-69
2022/03/23 10:01:00;;;;;;;26.58;21.35;;;;;;;15.75;33.65;102989.91;5269506;28;20024;-68
2022/03/23 10:03:43;;;;;;;24.42;20.73;;;;;;;15.92;35.91;102986.03;5270252;28;20033;-70
2022/03/23 10:06:38;;;;;;;28.45;21.90;;;;;;;16.14;32.69;102986.16;5273653;28;20029;-70
2022/03/23 10:09:21;;;;;;;26.27;19.85;;;;;;;16.26;32.74;102994.97;5266364;28;20108;-70
2022/03/23 10:12:30;;;;;;;27.95;21.00;;;;;;;16.63;32.68;102994.81;5267889;28;20034;-69
2022/03/23 10:15:38;;;;;;;29.67;20.05;;;;;;;16.80;32.14;102997.03;5270855;28;20060;-70
2022/03/23 10:18:49;;;;;;;25.92;20.80;;;;;;;16.93;30.58;102999.56;5271863;28;20020;-70
2022/03/23 10:21:31;;;;;;;27.23;20.08;;;;;;;16.85;30.19;102992.22;5273748;28;20032;-70
2022/03/23 10:24:03;;;;;;;29.30;19.77;;;;;;;16.96;30.33;102991.41;5270765;28;20089;-70
2022/03/23 10:26:36;;;;;;;25.03;19.40;;;;;;;16.92;30.62;102995.25;5268894;28;20036;-67
2022/03/23 10:29:20;;;;;;;24.63;20.52;;;;;;;17.30;32.65;102991.41;5273634;28;20027;-70
2022/03/23 10:32:08;;;;;;;30.85;21.75;;;;;;;17.34;31.65;102988.38;5273603;28;20032;-70
2022/03/23 10:34:47;;;;;;;26.83;21.90;;;;;;;17.40;31.90;102981.75;5265387;28;20029;-68
2022/03/23 10:37:30;;;;;;;28.02;21.55;;;;;;;17.66;31.52;102979.66;5271739;28;21170;-67
2022/03/23 10:40:08;;;;;;;22.90;19.80;;;;;;;17.59;29.87;102981.97;5271324;28;20077;-70
2022/03/23 10:42:44;;;;;;;26.88;21.42;;;;;;;17.66;30.78;102977.84;5271112;28;20082;-70
2022/03/23 10:45:18;;;;;;;26.08;20.95;;;;;;;17.69;29.60;102980.25;5272585;28;20044;-69
2022/03/23 10:47:50;;;;;;;28.98;23.23;;;;;;;17.87;29.66;102977.91;5270395;28;20037;-70
2022/03/23 10:50:23;;;;;;;26.15;21.13;;;;;;;17.94;29.87;102980.91;5269885;28;20024;-70
2022/03/23 10:52:57;;;;;;;32.30;21.75;;;;;;;17.91;30.12;102971.41;5270868;28;20024;-70
2022/03/23 10:55:36;;;;;;;25.33;21.00;;;;;;;18.07;30.66;102971.00;5273316;28;20024;-69
2022/03/23 10:58:22;;;;;;;27.35;21.33;;;;;;;18.29;29.47;102975.31;5274167;28;20021;-70
2022/03/23 11:00:55;;;;;;;27.52;19.88;;;;;;;18.43;28.51;102967.06;5272067;28;20032;-70
2022/03/23 11:03:48;;;;;;;27.50;20.75;;;;;;;18.70;29.41;102963.00;5272809;28;20032;-69
2022/03/23 11:06:27;;;;;;;25.17;19.95;;;;;;;18.68;28.41;102965.81;5273977;28;20032;-70
2022/03/23 11:15:46;;;;;;;27.42;20.85;;;;;;;18.63;27.67;102968.00;5273566;28;20025;-70
2022/03/23 11:18:12;;;;;;;23.25;18.73;;;;;;;19.02;26.46;102970.91;5273214;28;20029;-70
2022/03/23 11:20:46;;;;;;;20.77;16.88;;;;;;;19.12;25.91;102968.25;5268290;28;20388;-71
2022/03/23 11:23:19;;;;;;;19.65;16.90;;;;;;;18.97;24.69;102962.47;5270892;28;20478;-70
2022/03/23 11:25:55;;;;;;;20.15;17.70;;;;;;;19.00;24.79;102958.72;5272414;28;20020;-70
2022/03/23 11:28:28;;;;;;;22.15;19.08;;;;;;;19.20;27.29;102961.28;5271719;28;20044;-68
2022/03/23 11:31:04;;;;;;;21.77;18.95;;;;;;;19.07;26.44;102959.88;5272021;28;20052;-68
2022/03/23 11:33:37;;;;;;;22.00;18.83;;;;;;;19.30;25.70;102953.34;5273935;28;20112;-68
2022/03/23 11:36:11;;;;;;;20.88;17.60;;;;;;;19.28;24.59;102957.97;5270554;28;20032;-70
2022/03/23 11:38:43;;;;;;;18.88;16.73;;;;;;;19.35;24.75;102952.94;5273942;28;20342;-69
2022/03/23 11:41:16;;;;;;;18.53;16.53;;;;;;;19.57;24.27;102952.69;5274884;28;20184;-71
2022/03/23 11:43:47;;;;;;;22.73;17.80;;;;;;;19.65;24.65;102954.69;5270888;28;20678;-68
2022/03/23 11:46:24;;;;;;;21.05;17.45;;;;;;;19.80;25.72;102947.16;5270284;28;20028;-70
2022/03/23 11:49:29;;;;;;;23.17;18.60;;;;;;;20.05;25.94;102948.44;5274188;28;20017;-71
2022/03/23 11:52:18;;;;;;;22.50;18.92;;;;;;;19.92;25.15;102941.53;5275271;28;20500;-70
2022/03/23 11:58:10;;;;;;;21.27;18.05;;;;;;;19.88;23.71;102934.84;5273799;28;20029;-70
2022/03/23 12:00:51;;;;;;;23.95;17.85;;;;;;;19.97;24.55;102941.16;5274174;28;20103;-70
2022/03/23 12:03:41;;;;;;;19.70;16.92;;;;;;;20.02;24.64;102933.56;5272903;28;20101;-70
2022/03/23 12:06:15;;;;;;;22.05;17.08;;;;;;;19.89;23.30;102935.69;5264491;28;20024;-69